createdAt,value
2023-03-05T00:00:42.150Z,10
2023-03-05T00:01:56.292Z,9
2023-03-05T00:03:10.489Z,10
2023-03-05T00:04:24.589Z,9
2023-03-05T00:06:52.854Z,8
2023-03-05T00:08:07.001Z,9
2023-03-05T00:09:21.088Z,8
2023-03-05T00:11:49.384Z,8
2023-03-05T00:13:03.691Z,8
2023-03-05T00:14:17.762Z,8
2023-03-05T00:16:45.898Z,8
2023-03-05T00:18:00.141Z,7
2023-03-05T00:19:14.540Z,8
2023-03-05T00:21:42.452Z,9
2023-03-05T00:22:56.578Z,8
2023-03-05T00:24:10.674Z,8
2023-03-05T00:25:24.849Z,8
2023-03-05T00:27:53.096Z,8
2023-03-05T00:29:07.245Z,8
2023-03-05T00:30:21.381Z,8
2023-03-05T00:32:49.656Z,7
2023-03-05T00:34:03.783Z,9
2023-03-05T00:35:17.857Z,8
2023-03-05T00:37:46.163Z,8
2023-03-05T00:39:00.326Z,9
2023-03-05T00:40:14.471Z,8
2023-03-05T00:42:42.740Z,9
2023-03-05T00:43:56.854Z,8
2023-03-05T00:45:10.960Z,9
2023-03-05T00:46:25.186Z,7
2023-03-05T00:48:53.362Z,8
2023-03-05T00:50:07.497Z,9
2023-03-05T00:51:21.590Z,8
2023-03-05T00:53:50.004Z,9
2023-03-05T00:55:04.042Z,8
2023-03-05T00:56:18.135Z,9
2023-03-05T00:58:46.443Z,9
2023-03-05T01:00:00.560Z,8
2023-03-05T01:01:14.702Z,8
2023-03-05T01:03:42.968Z,7
2023-03-05T01:04:57.118Z,7
2023-03-05T01:06:11.201Z,7
2023-03-05T01:07:25.362Z,7
2023-03-05T01:09:53.621Z,8
2023-03-05T01:11:07.742Z,7
2023-03-05T01:12:21.882Z,8
2023-03-05T01:14:50.157Z,8
2023-03-05T01:16:04.272Z,8
2023-03-05T01:17:18.435Z,8
2023-03-05T01:19:46.734Z,8
2023-03-05T01:21:00.804Z,8
2023-03-05T01:22:14.944Z,8
2023-03-05T01:24:43.210Z,8
2023-03-05T01:25:57.283Z,8
2023-03-05T01:27:11.452Z,8
2023-03-05T01:28:25.593Z,8
2023-03-05T01:30:53.921Z,8
2023-03-05T01:32:08.072Z,8
2023-03-05T01:33:22.142Z,9
2023-03-05T01:35:58.688Z,8
2023-03-05T01:37:12.746Z,10
2023-03-05T01:39:40.974Z,9
2023-03-05T01:40:55.078Z,11
2023-03-05T01:42:09.289Z,9
2023-03-05T01:43:23.431Z,10
2023-03-05T01:45:51.641Z,10
2023-03-05T01:47:05.793Z,10
2023-03-05T01:48:19.961Z,9
2023-03-05T01:50:48.251Z,9
2023-03-05T01:52:02.327Z,8
2023-03-05T01:53:16.448Z,9
2023-03-05T01:55:44.727Z,9
2023-03-05T01:56:58.942Z,9
2023-03-05T01:58:12.980Z,10
2023-03-05T02:00:41.285Z,10
2023-03-05T02:01:55.413Z,10
2023-03-05T02:03:09.503Z,12
2023-03-05T02:04:23.673Z,10
2023-03-05T02:06:51.937Z,10
2023-03-05T02:08:06.051Z,10
2023-03-05T02:09:20.214Z,10
2023-03-05T02:11:48.507Z,11
2023-03-05T02:13:02.568Z,10
2023-03-05T02:14:16.721Z,10
2023-03-05T02:16:45.020Z,11
2023-03-05T02:17:59.176Z,10
2023-03-05T02:19:13.241Z,10
2023-03-05T02:20:27.310Z,11
2023-03-05T02:21:41.465Z,11
2023-03-05T02:22:55.656Z,10
2023-03-05T02:24:09.770Z,9
2023-03-05T02:25:23.871Z,10
2023-03-05T02:27:52.174Z,10
2023-03-05T02:29:06.330Z,9
2023-03-05T02:30:20.560Z,10
2023-03-05T02:32:48.828Z,8
2023-03-05T02:34:02.845Z,9
2023-03-05T02:35:17.152Z,9
2023-03-05T02:37:45.240Z,8
2023-03-05T02:38:59.440Z,8
2023-03-05T02:40:13.572Z,8
2023-03-05T02:42:41.765Z,7
2023-03-05T02:43:55.919Z,7
2023-03-05T02:45:10.081Z,6
2023-03-05T02:46:24.158Z,7
2023-03-05T02:48:52.416Z,6
2023-03-05T02:50:06.549Z,6
2023-03-05T02:51:20.656Z,7
2023-03-05T02:53:48.981Z,6
2023-03-05T02:55:03.121Z,7
2023-03-05T02:56:17.217Z,7
2023-03-05T02:58:45.477Z,6
2023-03-05T02:59:59.842Z,6
2023-03-05T03:01:13.833Z,6
2023-03-05T03:03:41.998Z,6
2023-03-05T03:04:56.146Z,6
2023-03-05T03:06:10.273Z,5
2023-03-05T03:07:24.430Z,7
2023-03-05T03:09:52.689Z,6
2023-03-05T03:11:06.912Z,5
2023-03-05T03:12:20.962Z,5
2023-03-05T03:14:49.280Z,6
2023-03-05T03:16:03.447Z,5
2023-03-05T03:17:17.586Z,5
2023-03-05T03:19:45.725Z,5
2023-03-05T03:20:59.886Z,5
2023-03-05T03:22:14.022Z,5
2023-03-05T03:24:42.248Z,5
2023-03-05T03:25:56.423Z,5
2023-03-05T03:27:10.560Z,5
2023-03-05T03:28:24.682Z,6
2023-03-05T03:30:52.939Z,5
2023-03-05T03:32:07.118Z,5
2023-03-05T03:33:21.198Z,5
2023-03-05T03:35:49.645Z,6
2023-03-05T03:37:03.757Z,5
2023-03-05T03:38:17.740Z,5
2023-03-05T03:40:46.003Z,5
2023-03-05T03:42:00.224Z,5
2023-03-05T03:43:14.305Z,5
2023-03-05T03:45:42.689Z,5
2023-03-05T03:46:56.682Z,5
2023-03-05T03:48:10.791Z,5
2023-03-05T03:49:24.948Z,5
2023-03-05T03:51:53.241Z,5
2023-03-05T03:53:07.331Z,5
2023-03-05T03:54:21.427Z,5
2023-03-05T03:56:49.804Z,6
2023-03-05T03:58:03.877Z,6
2023-03-05T03:59:18.043Z,6
2023-03-05T04:01:46.444Z,5
2023-03-05T04:03:00.382Z,6
2023-03-05T04:04:14.615Z,6
2023-03-05T04:06:42.832Z,7
2023-03-05T04:07:56.948Z,6
2023-03-05T04:09:11.041Z,7
2023-03-05T04:11:39.449Z,6
2023-03-05T04:12:53.605Z,6
2023-03-05T04:14:07.615Z,6
2023-03-05T04:15:21.760Z,6
2023-03-05T04:17:50.002Z,6
2023-03-05T04:19:04.106Z,5
2023-03-05T04:20:18.301Z,5
2023-03-05T04:22:46.580Z,5
2023-03-05T04:24:00.629Z,5
2023-03-05T04:25:14.786Z,5
2023-03-05T04:27:43.119Z,5
2023-03-05T04:28:57.168Z,5
2023-03-05T04:30:11.298Z,5
2023-03-05T04:31:25.541Z,5
2023-03-05T04:33:53.797Z,5
2023-03-05T04:35:07.855Z,5
2023-03-05T04:36:21.981Z,5
2023-03-05T04:38:50.192Z,5
2023-03-05T04:40:04.406Z,5
2023-03-05T04:41:18.504Z,6
2023-03-05T04:43:46.818Z,5
2023-03-05T04:45:00.895Z,5
2023-03-05T04:46:15.098Z,5
2023-03-05T04:48:43.345Z,5
2023-03-05T04:49:57.439Z,5
2023-03-05T04:51:11.546Z,5
2023-03-05T04:53:39.840Z,6
2023-03-05T04:54:53.963Z,5
2023-03-05T04:56:08.121Z,5
2023-03-05T04:57:23.822Z,6
2023-03-05T04:59:50.498Z,5
2023-03-05T05:01:04.633Z,5
2023-03-05T05:02:18.795Z,5
2023-03-05T05:04:47.041Z,5
2023-03-05T05:06:01.401Z,6
2023-03-05T05:07:15.310Z,5
2023-03-05T05:09:43.587Z,5
2023-03-05T05:10:57.703Z,5
2023-03-05T05:12:11.863Z,5
2023-03-05T05:14:40.186Z,5
2023-03-05T05:15:54.313Z,5
2023-03-05T05:17:08.369Z,5
2023-03-05T05:18:22.480Z,6
2023-03-05T05:20:50.734Z,6
2023-03-05T05:22:04.909Z,5
2023-03-05T05:23:19.014Z,5
2023-03-05T05:25:47.388Z,5
2023-03-05T05:27:01.410Z,6
2023-03-05T05:28:15.543Z,5
2023-03-05T05:30:43.855Z,5
2023-03-05T05:31:58.037Z,5
2023-03-05T05:33:12.065Z,5
2023-03-05T05:35:40.431Z,6
2023-03-05T05:36:54.501Z,5
2023-03-05T05:38:08.609Z,5
2023-03-05T05:39:22.759Z,5
2023-03-05T05:41:51.026Z,6
2023-03-05T05:43:05.123Z,5
2023-03-05T05:44:19.303Z,5
2023-03-05T05:46:47.736Z,5
2023-03-05T05:48:01.674Z,6
2023-03-05T05:49:15.801Z,5
2023-03-05T05:51:44.155Z,5
2023-03-05T05:52:58.191Z,7
2023-03-05T05:54:12.364Z,9
2023-03-05T05:56:40.667Z,7
2023-03-05T05:57:54.810Z,10
2023-03-05T05:59:08.909Z,7
2023-03-05T06:00:23.074Z,12
2023-03-05T06:02:51.332Z,7
2023-03-05T06:04:05.502Z,6
2023-03-05T06:05:19.557Z,6
2023-03-05T06:07:47.869Z,7
2023-03-05T06:09:01.976Z,6
2023-03-05T06:10:16.145Z,5
2023-03-05T06:12:44.393Z,14
2023-03-05T06:13:58.562Z,18
2023-03-05T06:15:12.632Z,19
2023-03-05T06:17:40.839Z,9
2023-03-05T06:18:55.023Z,11
2023-03-05T06:20:09.139Z,8
2023-03-05T06:21:23.282Z,8
2023-03-05T06:23:51.563Z,8
2023-03-05T06:25:05.685Z,9
2023-03-05T06:26:19.826Z,10
2023-03-05T06:28:48.092Z,7
2023-03-05T06:30:02.265Z,6
2023-03-05T06:31:16.456Z,8
2023-03-05T06:33:44.602Z,6
2023-03-05T06:34:58.813Z,5
2023-03-05T06:36:12.877Z,6
2023-03-05T06:38:41.168Z,6
2023-03-05T06:39:55.300Z,5
2023-03-05T06:41:09.414Z,5
2023-03-05T06:42:23.538Z,5
2023-03-05T06:44:51.800Z,5
2023-03-05T06:46:06.026Z,5
2023-03-05T06:47:20.063Z,4
2023-03-05T06:49:48.344Z,5
2023-03-05T06:51:02.479Z,5
2023-03-05T06:52:16.625Z,4
2023-03-05T06:54:44.856Z,4
2023-03-05T06:55:59.066Z,5
2023-03-05T06:57:13.141Z,5
2023-03-05T06:58:27.245Z,4
2023-03-05T06:59:41.409Z,4
2023-03-05T07:00:55.571Z,4
2023-03-05T07:02:09.691Z,5
2023-03-05T07:03:23.797Z,5
2023-03-05T07:05:52.067Z,4
2023-03-05T07:07:06.170Z,6
2023-03-05T07:08:20.279Z,9
2023-03-05T07:10:48.670Z,5
2023-03-05T07:12:02.769Z,5
2023-03-05T07:13:16.959Z,5
2023-03-05T07:15:45.128Z,5
2023-03-05T07:16:59.254Z,5
2023-03-05T07:18:13.514Z,5
2023-03-05T07:20:41.640Z,5
2023-03-05T07:21:55.809Z,6
2023-03-05T07:23:09.941Z,5
2023-03-05T07:24:24.052Z,5
2023-03-05T07:26:52.313Z,5
2023-03-05T07:28:06.561Z,5
2023-03-05T07:29:20.561Z,5
2023-03-05T07:31:48.823Z,5
2023-03-05T07:33:03.014Z,5
2023-03-05T07:34:17.129Z,4
2023-03-05T07:36:45.371Z,4
2023-03-05T07:37:59.529Z,4
2023-03-05T07:39:13.746Z,4
2023-03-05T07:41:41.910Z,5
2023-03-05T07:42:56.068Z,4
2023-03-05T07:44:10.294Z,5
2023-03-05T07:45:24.323Z,5
2023-03-05T07:47:52.746Z,5
2023-03-05T07:49:06.750Z,4
2023-03-05T07:50:20.830Z,4
2023-03-05T07:52:49.161Z,5
2023-03-05T07:54:03.293Z,6
2023-03-05T07:55:17.389Z,6
2023-03-05T07:57:45.637Z,5
2023-03-05T07:58:59.855Z,5
2023-03-05T08:00:13.944Z,5
2023-03-05T08:02:42.247Z,5
2023-03-05T08:03:56.365Z,5
2023-03-05T08:05:10.447Z,5
2023-03-05T08:06:24.543Z,5
2023-03-05T08:08:52.977Z,5
2023-03-05T08:10:07.087Z,5
2023-03-05T08:11:21.057Z,5
2023-03-05T08:13:49.409Z,5
2023-03-05T08:15:03.552Z,6
2023-03-05T08:16:17.784Z,6
2023-03-05T08:18:45.938Z,6
2023-03-05T08:20:00.118Z,6
2023-03-05T08:21:14.150Z,5
2023-03-05T08:23:42.457Z,5
2023-03-05T08:24:56.588Z,5
2023-03-05T08:26:10.685Z,5
2023-03-05T08:27:24.810Z,5
2023-03-05T08:29:53.114Z,5
2023-03-05T08:31:07.293Z,5
2023-03-05T08:32:21.403Z,6
2023-03-05T08:34:49.738Z,6
2023-03-05T08:36:03.836Z,6
2023-03-05T08:37:17.946Z,5
2023-03-05T08:39:46.160Z,6
2023-03-05T08:41:00.254Z,6
2023-03-05T08:42:14.436Z,7
2023-03-05T08:44:42.733Z,6
2023-03-05T08:45:56.798Z,6
2023-03-05T08:47:11.091Z,5
2023-03-05T08:48:25.102Z,5
2023-03-05T08:50:53.376Z,5
2023-03-05T08:52:07.497Z,5
2023-03-05T08:53:21.690Z,5
2023-03-05T08:55:49.941Z,6
2023-03-05T08:57:04.032Z,5
2023-03-05T08:58:18.199Z,8
2023-03-05T09:00:46.516Z,6
2023-03-05T09:02:00.615Z,6
2023-03-05T09:03:14.894Z,6
2023-03-05T09:05:43.029Z,6
2023-03-05T09:06:57.110Z,6
2023-03-05T09:08:11.208Z,6
2023-03-05T09:10:39.464Z,6
2023-03-05T09:11:53.656Z,5
2023-03-05T09:13:07.778Z,5
2023-03-05T09:14:21.885Z,6
2023-03-05T09:16:50.129Z,6
2023-03-05T09:18:04.309Z,6
2023-03-05T09:19:18.491Z,6
2023-03-05T09:21:46.768Z,7
2023-03-05T09:23:00.807Z,6
2023-03-05T09:24:15.020Z,7
2023-03-05T09:26:43.223Z,7
2023-03-05T09:27:57.350Z,7
2023-03-05T09:29:11.469Z,7
2023-03-05T09:31:39.962Z,6
2023-03-05T09:32:53.894Z,6
2023-03-05T09:34:08.040Z,7
2023-03-05T09:35:22.129Z,6
2023-03-05T09:37:50.409Z,7
2023-03-05T09:39:04.505Z,7
2023-03-05T09:40:18.675Z,7
2023-03-05T09:42:47.003Z,6
2023-03-05T09:44:01.068Z,7
2023-03-05T09:45:15.180Z,7
2023-03-05T09:47:43.559Z,8
2023-03-05T09:48:57.616Z,7
2023-03-05T09:50:11.682Z,7
2023-03-05T09:51:25.874Z,7
2023-03-05T09:53:54.150Z,7
2023-03-05T09:55:08.268Z,6
2023-03-05T09:56:22.472Z,7
2023-03-05T09:58:50.664Z,7
2023-03-05T10:00:04.806Z,8
2023-03-05T10:01:18.923Z,8
2023-03-05T10:02:33.072Z,7
2023-03-05T10:03:47.278Z,8
2023-03-05T10:05:01.281Z,8
2023-03-05T10:06:15.464Z,11
2023-03-05T10:08:43.795Z,7
2023-03-05T10:09:57.845Z,9
2023-03-05T10:11:12.010Z,8
2023-03-05T10:13:40.247Z,8
2023-03-05T10:14:54.395Z,8
2023-03-05T10:16:08.560Z,8
2023-03-05T10:17:22.772Z,8
2023-03-05T10:19:50.871Z,7
2023-03-05T10:21:05.066Z,8
2023-03-05T10:22:19.284Z,8
2023-03-05T10:24:47.576Z,8
2023-03-05T10:26:01.597Z,8
2023-03-05T10:27:15.788Z,8
2023-03-05T10:29:43.974Z,8
2023-03-05T10:30:58.142Z,8
2023-03-05T10:32:12.416Z,8
2023-03-05T10:34:40.483Z,8
2023-03-05T10:35:54.690Z,9
2023-03-05T10:37:08.786Z,9
2023-03-05T10:38:23.006Z,9
2023-03-05T10:40:51.264Z,8
2023-03-05T10:42:05.344Z,9
2023-03-05T10:43:19.560Z,9
2023-03-05T10:45:47.893Z,9
2023-03-05T10:47:01.882Z,9
2023-03-05T10:48:16.091Z,9
2023-03-05T10:50:44.238Z,9
2023-03-05T10:51:58.516Z,8
2023-03-05T10:53:12.565Z,10
2023-03-05T10:55:40.763Z,8
2023-03-05T10:56:54.957Z,8
2023-03-05T10:58:09.068Z,8
2023-03-05T10:59:23.162Z,9
2023-03-05T11:01:51.429Z,10
2023-03-05T11:04:19.681Z,10
2023-03-05T11:06:48.249Z,10
2023-03-05T11:08:02.143Z,9
2023-03-05T11:09:16.258Z,11
2023-03-05T11:11:44.518Z,12
2023-03-05T11:12:58.767Z,10
2023-03-05T11:14:12.891Z,11
2023-03-05T11:16:41.052Z,13
2023-03-05T11:17:55.217Z,13
2023-03-05T11:19:09.273Z,15
2023-03-05T11:20:23.443Z,17
2023-03-05T11:22:51.729Z,15
2023-03-05T11:24:05.926Z,14
2023-03-05T11:25:20.012Z,14
2023-03-05T11:27:50.428Z,15
2023-03-05T11:29:02.346Z,14
2023-03-05T11:30:16.544Z,17
2023-03-05T11:32:44.751Z,17
2023-03-05T11:33:58.929Z,16
2023-03-05T11:35:13.111Z,16
2023-03-05T11:37:41.313Z,18
2023-03-05T11:38:55.420Z,17
2023-03-05T11:40:09.558Z,18
2023-03-05T11:41:23.696Z,18
2023-03-05T11:43:51.932Z,17
2023-03-05T11:45:06.236Z,19
2023-03-05T11:46:20.231Z,18
2023-03-05T11:48:48.506Z,19
2023-03-05T11:50:02.702Z,18
2023-03-05T11:51:16.802Z,20
2023-03-05T11:53:45.011Z,17
2023-03-05T11:54:59.221Z,19
2023-03-05T11:56:13.351Z,16
2023-03-05T11:58:41.551Z,17
2023-03-05T11:59:55.741Z,17
2023-03-05T12:01:09.851Z,18
2023-03-05T12:02:24.054Z,17
2023-03-05T12:04:52.240Z,16
2023-03-05T12:06:06.460Z,17
2023-03-05T12:07:20.564Z,17
2023-03-05T12:09:48.953Z,16
2023-03-05T12:11:02.884Z,17
2023-03-05T12:12:17.140Z,16
2023-03-05T12:14:45.290Z,19
2023-03-05T12:15:59.480Z,18
2023-03-05T12:17:13.606Z,19
2023-03-05T12:19:41.809Z,19
2023-03-05T12:20:56.005Z,18
2023-03-05T12:22:10.105Z,20
2023-03-05T12:23:24.187Z,20
2023-03-05T12:25:52.550Z,20
2023-03-05T12:27:06.759Z,19
2023-03-05T12:28:20.707Z,19
2023-03-05T12:30:49.041Z,21
2023-03-05T12:32:03.228Z,21
2023-03-05T12:33:17.364Z,20
2023-03-05T12:35:45.654Z,21
2023-03-05T12:36:59.792Z,20
2023-03-05T12:38:26.404Z,20
2023-03-05T12:40:42.886Z,21
2023-03-05T12:41:56.200Z,19
2023-03-05T12:43:10.309Z,20
2023-03-05T12:44:24.490Z,19
2023-03-05T12:46:52.804Z,20
2023-03-05T12:48:06.894Z,20
2023-03-05T12:49:21.046Z,22
2023-03-05T12:51:49.318Z,19
2023-03-05T12:53:03.439Z,19
2023-03-05T12:54:19.104Z,20
2023-03-05T12:56:45.876Z,19
2023-03-05T12:57:59.912Z,19
2023-03-05T12:59:14.103Z,21
2023-03-05T13:01:42.351Z,18
2023-03-05T13:02:56.447Z,17
2023-03-05T13:04:10.626Z,18
2023-03-05T13:05:24.767Z,19
2023-03-05T13:07:52.998Z,17
2023-03-05T13:09:07.166Z,18
2023-03-05T13:10:21.270Z,17
2023-03-05T13:12:49.546Z,18
2023-03-05T13:14:03.695Z,19
2023-03-05T13:15:17.860Z,19
2023-03-05T13:17:46.092Z,18
2023-03-05T13:19:00.182Z,18
2023-03-05T13:20:14.340Z,16
2023-03-05T13:22:42.567Z,17
2023-03-05T13:23:56.724Z,17
2023-03-05T13:25:10.855Z,17
2023-03-05T13:26:24.994Z,17
2023-03-05T13:28:53.261Z,18
2023-03-05T13:30:07.501Z,17
2023-03-05T13:31:21.583Z,15
2023-03-05T13:33:49.866Z,15
2023-03-05T13:35:03.932Z,15
2023-03-05T13:36:18.058Z,17
2023-03-05T13:38:46.354Z,16
2023-03-05T13:40:00.448Z,17
2023-03-05T13:41:14.863Z,14
2023-03-05T13:43:42.860Z,13
2023-03-05T13:44:57.028Z,15
2023-03-05T13:46:11.109Z,14
2023-03-05T13:47:25.239Z,13
2023-03-05T13:49:53.611Z,13
2023-03-05T13:51:07.696Z,13
2023-03-05T13:52:21.764Z,12
2023-03-05T13:54:50.123Z,12
2023-03-05T13:56:04.235Z,12
2023-03-05T13:57:19.005Z,12
2023-03-05T13:59:46.598Z,13
2023-03-05T14:01:00.732Z,13
2023-03-05T14:02:14.831Z,12
2023-03-05T14:04:43.261Z,12
2023-03-05T14:05:57.280Z,12
2023-03-05T14:07:11.324Z,12
2023-03-05T14:08:25.525Z,11
2023-03-05T14:10:53.761Z,12
2023-03-05T14:12:07.952Z,13
2023-03-05T14:13:22.051Z,12
2023-03-05T14:15:50.296Z,12
2023-03-05T14:17:04.498Z,13
2023-03-05T14:18:19.040Z,14
2023-03-05T14:20:46.932Z,13
2023-03-05T14:22:00.940Z,13
2023-03-05T14:23:25.172Z,15
2023-03-05T14:25:43.506Z,15
2023-03-05T14:26:57.474Z,16
2023-03-05T14:28:11.627Z,16
2023-03-05T14:30:40.045Z,16
2023-03-05T14:31:54.059Z,16
2023-03-05T14:33:08.307Z,16
2023-03-05T14:34:22.340Z,16
2023-03-05T14:36:50.515Z,17
2023-03-05T14:38:04.711Z,16
2023-03-05T14:39:18.913Z,17
2023-03-05T14:40:33.027Z,18
2023-03-05T14:41:47.148Z,18
2023-03-05T14:43:01.325Z,18
2023-03-05T14:44:15.440Z,19
2023-03-05T14:46:43.737Z,19
2023-03-05T14:48:00.120Z,20
2023-03-05T14:49:11.940Z,18
2023-03-05T14:51:40.243Z,22
2023-03-05T14:52:54.378Z,22
2023-03-05T14:54:08.536Z,21
2023-03-05T14:55:22.720Z,18
2023-03-05T14:57:51.024Z,19
2023-03-05T14:59:04.966Z,20
2023-03-05T15:00:19.113Z,21
2023-03-05T15:02:47.501Z,18
2023-03-05T15:04:01.488Z,18
2023-03-05T15:05:15.646Z,19
2023-03-05T15:07:43.925Z,17
2023-03-05T15:08:58.044Z,20
2023-03-05T15:10:12.176Z,15
2023-03-05T15:11:26.264Z,18
2023-03-05T15:12:40.469Z,16
2023-03-05T15:13:54.610Z,17
2023-03-05T15:15:08.724Z,15
2023-03-05T15:16:22.784Z,17
2023-03-05T15:18:51.094Z,12
2023-03-05T15:20:05.198Z,18
2023-03-05T15:21:19.337Z,16
2023-03-05T15:23:47.712Z,13
2023-03-05T15:25:01.809Z,14
2023-03-05T15:26:15.876Z,15
2023-03-05T15:28:44.161Z,12
2023-03-05T15:29:58.319Z,16
2023-03-05T15:31:12.453Z,12
2023-03-05T15:33:40.680Z,14
2023-03-05T15:34:54.822Z,14
2023-03-05T15:36:08.920Z,14
2023-03-05T15:37:23.081Z,16
2023-03-05T15:39:51.324Z,12
2023-03-05T15:41:05.446Z,16
2023-03-05T15:42:19.585Z,15
2023-03-05T15:44:48.005Z,12
2023-03-05T15:46:02.073Z,13
2023-03-05T15:47:16.153Z,12
2023-03-05T15:49:44.428Z,12
2023-03-05T15:50:58.536Z,24
2023-03-05T15:52:12.697Z,13
2023-03-05T15:54:40.938Z,12
2023-03-05T15:55:55.037Z,14
2023-03-05T15:57:09.214Z,13
2023-03-05T15:58:23.406Z,11
2023-03-05T16:00:51.581Z,12
2023-03-05T16:02:05.754Z,14
2023-03-05T16:03:20.032Z,12
2023-03-05T16:05:48.176Z,12
2023-03-05T16:07:02.278Z,9
2023-03-05T16:08:16.515Z,8
2023-03-05T16:10:44.635Z,9
2023-03-05T16:11:58.794Z,8
2023-03-05T16:13:12.958Z,8
2023-03-05T16:15:41.155Z,13
2023-03-05T16:16:55.356Z,12
2023-03-05T16:18:09.516Z,13
2023-03-05T16:19:23.642Z,13
2023-03-05T16:21:51.895Z,29
2023-03-05T16:23:06.071Z,24
2023-03-05T16:24:20.190Z,23
2023-03-05T16:26:48.468Z,12
2023-03-05T16:28:02.567Z,11
2023-03-05T16:29:16.749Z,11
2023-03-05T16:31:45.016Z,18
2023-03-05T16:32:59.175Z,8
2023-03-05T16:34:13.246Z,11
2023-03-05T16:36:41.457Z,10
2023-03-05T16:37:55.705Z,14
2023-03-05T16:39:09.741Z,11
2023-03-05T16:40:23.846Z,13
2023-03-05T16:42:52.151Z,11
2023-03-05T16:44:06.256Z,12
2023-03-05T16:45:20.346Z,10
2023-03-05T16:47:48.666Z,9
2023-03-05T16:49:02.763Z,10
2023-03-05T16:50:16.980Z,9
2023-03-05T16:52:45.182Z,14
2023-03-05T16:53:59.473Z,12
2023-03-05T16:55:13.495Z,12
2023-03-05T16:57:41.708Z,11
2023-03-05T16:58:55.862Z,13
2023-03-05T17:00:09.986Z,12
2023-03-05T17:01:24.393Z,12
2023-03-05T17:03:52.491Z,14
2023-03-05T17:05:06.476Z,11
2023-03-05T17:06:20.660Z,11
2023-03-05T17:08:48.944Z,13
2023-03-05T17:10:03.049Z,13
2023-03-05T17:11:17.216Z,14
2023-03-05T17:13:48.189Z,15
2023-03-05T17:14:59.627Z,13
2023-03-05T17:16:13.873Z,14
2023-03-05T17:18:42.021Z,12
2023-03-05T17:19:56.170Z,14
2023-03-05T17:21:10.232Z,14
2023-03-05T17:22:24.427Z,13
2023-03-05T17:24:52.631Z,14
2023-03-05T17:26:06.848Z,17
2023-03-05T17:27:20.884Z,16
2023-03-05T17:29:49.271Z,14
2023-03-05T17:31:03.317Z,13
2023-03-05T17:32:17.502Z,22
2023-03-05T17:34:45.700Z,42
2023-03-05T17:35:59.910Z,28
2023-03-05T17:37:13.978Z,22
2023-03-05T17:39:42.214Z,16
2023-03-05T17:40:56.413Z,17
2023-03-05T17:42:10.478Z,15
2023-03-05T17:43:24.632Z,16
2023-03-05T17:45:53.052Z,20
2023-03-05T17:47:07.044Z,15
2023-03-05T17:48:21.135Z,15
2023-03-05T17:50:49.455Z,18
2023-03-05T17:52:03.569Z,21
2023-03-05T17:53:17.704Z,28
2023-03-05T17:55:46.100Z,17
2023-03-05T17:57:00.132Z,18
2023-03-05T17:58:14.230Z,22
2023-03-05T18:00:42.501Z,18
2023-03-05T18:01:56.717Z,17
2023-03-05T18:03:10.829Z,16
2023-03-05T18:04:24.906Z,16
2023-03-05T18:06:53.160Z,23
2023-03-05T18:08:07.365Z,23
2023-03-05T18:09:21.381Z,23
2023-03-05T18:11:49.771Z,17
2023-03-05T18:13:03.839Z,17
2023-03-05T18:14:18.004Z,19
2023-03-05T18:16:46.289Z,16
2023-03-05T18:18:00.448Z,17
2023-03-05T18:19:14.461Z,18
2023-03-05T18:21:42.796Z,16
2023-03-05T18:22:56.898Z,16
2023-03-05T18:24:10.981Z,17
2023-03-05T18:25:25.160Z,15
2023-03-05T18:27:53.462Z,15
2023-03-05T18:29:07.533Z,15
2023-03-05T18:30:21.704Z,13
2023-03-05T18:32:49.992Z,14
2023-03-05T18:34:04.117Z,15
2023-03-05T18:35:18.285Z,14
2023-03-05T18:37:46.576Z,14
2023-03-05T18:39:00.572Z,15
2023-03-05T18:40:14.747Z,15
2023-03-05T18:42:43.050Z,15
2023-03-05T18:43:57.115Z,18
2023-03-05T18:45:11.302Z,16
2023-03-05T18:47:39.550Z,17
2023-03-05T18:48:53.661Z,20
2023-03-05T18:50:07.905Z,22
2023-03-05T18:51:21.974Z,22
2023-03-05T18:53:50.178Z,20
2023-03-05T18:55:04.355Z,22
2023-03-05T18:56:18.508Z,20
2023-03-05T18:58:46.819Z,26
2023-03-05T19:00:00.862Z,23
2023-03-05T19:01:15.081Z,21
2023-03-05T19:03:43.237Z,19
2023-03-05T19:04:57.424Z,21
2023-03-05T19:06:11.561Z,19
2023-03-05T19:07:25.729Z,19
2023-03-05T19:09:53.990Z,20
2023-03-05T19:11:08.114Z,23
2023-03-05T19:12:22.215Z,23
2023-03-05T19:14:50.478Z,23
2023-03-05T19:16:04.679Z,22
2023-03-05T19:17:18.825Z,22
2023-03-05T19:19:47.128Z,22
2023-03-05T19:21:01.110Z,20
2023-03-05T19:22:15.275Z,21
2023-03-05T19:24:43.587Z,19
2023-03-05T19:25:57.698Z,20
2023-03-05T19:27:11.820Z,19
2023-03-05T19:29:40.126Z,21
2023-03-05T19:30:54.327Z,21
2023-03-05T19:32:08.472Z,20
2023-03-05T19:33:24.162Z,26
2023-03-05T19:35:50.818Z,21
2023-03-05T19:37:04.900Z,21
2023-03-05T19:38:18.972Z,21
2023-03-05T19:40:47.381Z,34
2023-03-05T19:42:01.395Z,28
2023-03-05T19:43:15.511Z,29
2023-03-05T19:45:43.819Z,23
2023-03-05T19:46:57.992Z,22
2023-03-05T19:48:12.026Z,23
2023-03-05T19:49:26.208Z,25
2023-03-05T19:50:40.315Z,24
2023-03-05T19:51:54.500Z,24
2023-03-05T19:53:08.567Z,24
2023-03-05T19:54:22.715Z,24
2023-03-05T19:56:53.529Z,24
2023-03-05T19:58:05.078Z,24
2023-03-05T19:59:19.308Z,21
2023-03-05T20:01:47.789Z,23
2023-03-05T20:03:01.663Z,23
2023-03-05T20:04:15.862Z,24
2023-03-05T20:06:44.055Z,24
2023-03-05T20:07:58.189Z,23
2023-03-05T20:09:12.373Z,23
2023-03-05T20:11:40.559Z,24
2023-03-05T20:12:54.696Z,24
2023-03-05T20:14:08.924Z,24
2023-03-05T20:15:22.986Z,24
2023-03-05T20:17:51.275Z,24
2023-03-05T20:19:05.415Z,26
2023-03-05T20:20:19.571Z,25
2023-03-05T20:22:47.801Z,25
2023-03-05T20:24:01.919Z,24
2023-03-05T20:25:16.111Z,24
2023-03-05T20:27:44.276Z,25
2023-03-05T20:28:58.451Z,25
2023-03-05T20:30:12.576Z,21
2023-03-05T20:32:40.826Z,24
2023-03-05T20:33:54.975Z,24
2023-03-05T20:35:09.155Z,25
2023-03-05T20:36:23.280Z,21
2023-03-05T20:38:51.495Z,32
2023-03-05T20:40:05.651Z,24
2023-03-05T20:41:19.795Z,22
2023-03-05T20:43:48.079Z,20
2023-03-05T20:45:02.189Z,20
2023-03-05T20:46:16.364Z,20
2023-03-05T20:48:44.591Z,19
2023-03-05T20:49:58.766Z,17
2023-03-05T20:51:12.896Z,18
2023-03-05T20:53:41.092Z,17
2023-03-05T20:54:55.349Z,18
2023-03-05T20:56:09.415Z,20
2023-03-05T20:57:23.466Z,20
2023-03-05T20:59:51.766Z,22
2023-03-05T21:01:05.964Z,18
2023-03-05T21:02:20.149Z,22
2023-03-05T21:04:48.417Z,21
2023-03-05T21:06:02.466Z,18
2023-03-05T21:07:16.714Z,21
2023-03-05T21:09:44.848Z,19
2023-03-05T21:10:59.159Z,19
2023-03-05T21:12:13.105Z,21
2023-03-05T21:13:27.304Z,21
2023-03-05T21:14:41.365Z,20
2023-03-05T21:15:55.514Z,22
2023-03-05T21:17:09.660Z,19
2023-03-05T21:18:23.776Z,21
2023-03-05T21:20:52.065Z,20
2023-03-05T21:22:06.127Z,20
2023-03-05T21:23:20.300Z,19
2023-03-05T21:25:48.681Z,19
2023-03-05T21:27:02.678Z,21
2023-03-05T21:28:16.959Z,22
2023-03-05T21:30:45.116Z,25
2023-03-05T21:31:59.527Z,23
2023-03-05T21:33:13.364Z,23
2023-03-05T21:35:41.610Z,23
2023-03-05T21:36:55.885Z,22
2023-03-05T21:38:09.908Z,22
2023-03-05T21:39:24.053Z,22
2023-03-05T21:41:52.294Z,22
2023-03-05T21:43:06.485Z,22
2023-03-05T21:44:20.559Z,22
2023-03-05T21:46:48.801Z,22
2023-03-05T21:48:02.987Z,22
2023-03-05T21:49:17.174Z,23
2023-03-05T21:51:45.332Z,24
2023-03-05T21:52:59.579Z,24
2023-03-05T21:54:13.617Z,24
2023-03-05T21:56:41.874Z,25
2023-03-05T21:57:56.124Z,25
2023-03-05T21:59:10.161Z,24
2023-03-05T22:00:24.284Z,25
2023-03-05T22:02:52.569Z,23
2023-03-05T22:04:06.734Z,25
2023-03-05T22:05:20.800Z,23
2023-03-05T22:07:49.128Z,24
2023-03-05T22:09:03.213Z,24
2023-03-05T22:10:17.405Z,24
2023-03-05T22:12:45.670Z,26
2023-03-05T22:13:59.724Z,24
2023-03-05T22:15:13.842Z,25
2023-03-05T22:17:42.113Z,25
2023-03-05T22:18:56.374Z,24
2023-03-05T22:20:10.400Z,24
2023-03-05T22:21:24.556Z,25
2023-03-05T22:23:52.803Z,24
2023-03-05T22:25:06.915Z,24
2023-03-05T22:26:21.064Z,25
2023-03-05T22:28:49.368Z,24
2023-03-05T22:30:03.459Z,24
2023-03-05T22:31:17.622Z,28
2023-03-05T22:33:45.917Z,25
2023-03-05T22:35:00.006Z,24
2023-03-05T22:36:14.106Z,24
2023-03-05T22:38:42.403Z,26
2023-03-05T22:39:56.583Z,25
2023-03-05T22:41:10.651Z,24
2023-03-05T22:42:24.798Z,24
2023-03-05T22:44:53.026Z,23
2023-03-05T22:46:07.305Z,24
2023-03-05T22:47:21.311Z,24
2023-03-05T22:49:49.690Z,25
2023-03-05T22:51:03.713Z,24
2023-03-05T22:52:17.964Z,25
2023-03-05T22:54:46.151Z,24
2023-03-05T22:56:00.215Z,25
2023-03-05T22:57:14.396Z,25
2023-03-05T22:59:42.685Z,24
2023-03-05T23:00:56.773Z,24
2023-03-05T23:02:10.909Z,25
2023-03-05T23:04:39.234Z,23
2023-03-05T23:05:53.308Z,24
2023-03-05T23:07:07.516Z,25
2023-03-05T23:08:21.579Z,24
2023-03-05T23:10:49.902Z,25
2023-03-05T23:12:03.984Z,25
2023-03-05T23:13:18.213Z,26
2023-03-05T23:15:46.606Z,25